Latest Coastal Weather Observations for Tewantin

IDQ60701

Issued at 6:45 pm EST Wednesday 4 March 2015 (issued every 10 minutes, with the page automatically refreshed every 10 minutes)

About coastal observations | Map of coastal stations | Coastal observations for QLD | Marine services | Other Formats
Station Details ID: 040908 Name: TEWANTIN RSL PARK Lat: -26.39 Lon: 153.04 Height: 6.4 m
Data from the previous 72 hours. | See also: Recent months at Tewantin
Date/Time
EST
Temp

°C
Wind Pressure Rain
since 9am
mm
Weather Cloud Vis
km
Sea
Height
m
Swell
Dir
 
Speed
knots
Gust
knots
hPa Trend Height
m
Period
s
Dir
04/06:30pm 25.3 N 4 6 1011.6 - 0.0 - - - - - - -
04/06:00pm 26.0 NNE 5 7 1011.5 - 0.0 - - - - - - -
04/05:30pm 26.3 NNE 6 9 1011.3 - 0.0 - - - - - - -
04/05:00pm 26.6 NE 5 10 1011.2 - 0.0 - - - - - - -
04/04:30pm 26.7 NE 7 11 1011.1 - 0.0 - - - - - - -
04/04:00pm 27.3 ENE 7 12 1011.1 - 0.0 - - - - - - -
04/03:30pm 27.8 NE 6 10 1011.1 - 0.0 - - - - - - -
04/03:00pm 27.7 NNE 7 9 1011.2 - 0.0 - - - - - - -
04/02:30pm 28.2 NE 6 8 1011.5 - 0.0 - - - - - - -
04/02:00pm 28.1 NE 6 9 1011.8 - 0.0 - - - - - - -
04/01:30pm 28.1 NE 6 9 1012.4 - 0.0 - - - - - - -
04/01:00pm 28.2 NE 7 10 1012.7 - 0.0 - - - - - - -
04/12:30pm 27.7 ENE 6 9 1013.0 - 0.0 - - - - - - -
04/12:00pm 28.4 NE 6 8 1013.4 - 0.0 - - - - - - -
04/11:30am 28.3 ENE 5 8 1013.7 - 0.0 - - - - - - -
04/11:00am 27.1 SE 4 6 1014.1 - 0.0 - - - - - - -
04/10:30am 26.8 SSE 3 5 1014.5 - 0.0 - - - - - - -
04/10:00am 27.3 S 5 7 1014.8 - 0.0 - - - - - - -
04/09:30am 26.5 SSW 3 7 1014.7 - 0.0 - - - - - - -
04/09:00am 26.6 SE 3 7 1014.6 - 0.0 - - - - - - -
04/08:30am 26.4 SSE 4 7 1014.4 - 0.0 - - - - - - -
04/08:00am 25.9 S 4 6 1014.3 - 0.0 - - - - - - -
04/07:30am 24.5 SSW 1 5 1013.9 - 0.0 - - - - - - -
04/07:00am 22.4 CALM 0 0 1013.7 - 0.0 - - - - - - -
04/06:30am 20.5 CALM 0 0 1013.5 - 0.0 - - - - - - -
04/06:00am 19.5 CALM 0 0 1013.2 - 0.0 - - - - - - -
04/05:30am 19.7 CALM 0 0 1012.9 - 0.0 - - - - - - -
04/05:00am 20.1 CALM 0 0 1012.8 - 0.0 - - - - - - -
04/04:30am 20.3 CALM 0 0 1012.9 - 0.0 - - - - - - -
04/04:00am 20.7 CALM 0 0 1012.8 - 0.0 - - - - - - -
04/03:30am 21.1 CALM 0 0 1012.8 - 0.0 - - - - - - -
04/03:00am 21.4 SSW 2 5 1013.0 - 0.0 - - - - - - -
04/02:30am 21.4 CALM 0 0 1013.4 - 0.0 - - - - - - -
04/02:00am 21.9 CALM 0 0 1013.7 - 0.0 - - - - - - -
04/01:30am 22.1 SSW 3 5 1013.9 - 0.0 - - - - - - -
04/01:00am 22.1 SSW 3 6 1014.3 - 0.0 - - - - - - -
04/12:30am 22.0 SSW 1 5 1014.6 - 0.0 - - - - - - -
04/12:00am 22.2 SSW 2 5 1014.9 - 0.0 - - - - - - -
 
Date/Time
EST
Temp

°C
Wind Pressure Rain
since 9am
mm
Weather Cloud Vis
km
Sea
Height
m
Swell
Dir
 
Speed
knots
Gust
knots
hPa Trend Height
m
Period
s
Dir
03/11:30pm 22.3 SSW 2 5 1015.2 - 0.0 - - - - - - -
03/11:00pm 22.2 SW 1 4 1015.2 - 0.0 - - - - - - -
03/10:30pm 22.4 CALM 0 0 1015.2 - 0.0 - - - - - - -
03/10:00pm 22.4 CALM 0 0 1015.3 - 0.0 - - - - - - -
03/09:30pm 22.6 CALM 0 0 1015.2 - 0.0 - - - - - - -
03/09:00pm 23.4 S 4 5 1015.2 - 0.0 - - - - - - -
03/08:30pm 23.5 SSW 2 4 1014.9 - 0.0 - - - - - - -
03/08:00pm 24.7 SSE 3 4 1014.4 - 0.0 - - - - - - -
03/07:30pm 24.8 SE 4 5 1014.2 - 0.0 - - - - - - -
03/07:00pm 25.1 SE 4 7 1013.9 - 0.0 - - - - - - -
03/06:30pm 25.3 ESE 4 8 1013.8 - 0.0 - - - - - - -
03/06:00pm 25.7 SE 7 11 1013.7 - 0.0 - - - - - - -
03/05:30pm 26.0 ESE 7 11 1013.5 - 0.0 - - - - - - -
03/05:00pm 26.1 SE 8 12 1013.2 - 0.0 - - - - - - -
03/04:30pm 26.6 SE 7 12 1013.1 - 0.0 - - - - - - -
03/04:00pm 27.0 SE 8 14 1013.1 - 0.0 - - - - - - -
03/03:30pm 27.1 SE 9 14 1012.9 - 0.0 - - - - - - -
03/03:00pm 27.2 SE 9 15 1013.0 - 0.0 - - - - - - -
03/02:30pm 27.3 SE 9 14 1013.2 - 0.0 - - - - - - -
03/02:00pm 27.2 SE 10 16 1013.4 - 0.0 - - - - - - -
03/01:30pm 27.4 ESE 11 17 1013.7 - 0.0 - - - - - - -
03/01:00pm 27.7 SE 9 17 1013.9 - 0.0 - - - - - - -
03/12:30pm 27.7 SE 9 15 1014.3 - 0.0 - - - - - - -
03/12:00pm 28.0 SE 9 16 1014.7 - 0.0 - - - - - - -
03/11:30am 27.5 SE 9 15 1015.0 - 0.0 - - - - - - -
03/11:00am 27.8 SSE 9 14 1015.2 - 0.0 - - - - - - -
03/10:30am 27.9 SSE 9 15 1015.3 - 0.0 - - - - - - -
03/10:00am 27.7 SE 8 15 1015.4 - 0.0 - - - - - - -
03/09:30am 27.1 SE 6 11 1015.5 - 0.0 - - - - - - -
03/09:00am 27.0 SE 6 9 1015.2 - 1.6 - - - - - - -
03/08:30am 26.1 SSE 6 11 1015.2 - 1.6 - - - - - - -
03/08:00am 25.2 SSE 6 10 1014.9 - 1.6 - - - - - - -
03/07:30am 24.3 S 7 11 1014.7 - 1.6 - - - - - - -
03/07:00am 23.2 S 5 7 1014.3 - 1.6 - - - - - - -
03/06:30am 23.2 S 6 10 1014.3 - 1.6 - - - - - - -
03/06:00am 22.9 SSW 6 9 1013.9 - 1.6 - - - - - - -
03/05:30am 22.7 SSW 6 8 1013.8 - 1.6 - - - - - - -
03/05:00am 22.8 SSW 6 9 1013.6 - 1.6 - - - - - - -
03/04:30am 22.9 S 6 8 1013.4 - 1.6 - - - - - - -
03/04:00am 23.3 S 7 10 1013.1 - 1.6 - - - - - - -
03/03:30am 23.5 S 5 8 1013.1 - 1.6 - - - - - - -
03/03:00am 23.6 SSW 6 9 1012.9 - 1.6 - - - - - - -
03/02:30am 23.5 S 7 9 1012.9 - 1.6 - - - - - - -
03/02:00am 23.7 S 7 10 1013.1 - 1.6 - - - - - - -
03/01:30am 24.1 S 7 9 1013.4 - 1.6 - - - - - - -
03/01:00am 24.5 S 7 11 1013.7 - 1.6 - - - - - - -
03/12:30am 24.9 SSE 7 12 1014.0 - 1.6 - - - - - - -
03/12:00am 25.4 SSE 7 13 1014.1 - 1.6 - - - - - - -
 
Date/Time
EST
Temp

°C
Wind Pressure Rain
since 9am
mm
Weather Cloud Vis
km
Sea
Height
m
Swell
Dir
 
Speed
knots
Gust
knots
hPa Trend Height
m
Period
s
Dir
02/11:30pm 25.5 SSE 8 13 1014.3 - 1.6 - - - - - - -
02/11:00pm 25.6 SE 8 14 1014.4 - 1.6 - - - - - - -
02/10:30pm 25.5 SSE 7 12 1014.5 - 1.6 - - - - - - -
02/10:00pm 25.4 SSE 7 13 1014.5 - 1.6 - - - - - - -
02/09:30pm 25.4 SSE 8 14 1014.5 - 1.6 - - - - - - -
02/09:00pm 25.2 SSE 7 12 1014.4 - 1.6 Recent precip. - - - - - -
02/08:30pm 24.7 SE 7 13 1014.0 - 1.6 - - - - - - -
02/08:00pm 25.7 SSE 7 12 1013.8 - 0.0 - - - - - - -
02/07:30pm 25.6 SSE 7 10 1013.4 - 0.0 - - - - - - -
02/07:00pm 25.7 SSE 8 15 1013.0 - 0.0 - - - - - - -
02/06:30pm 25.9 SSE 8 13 1012.6 - 0.0 - - - - - - -
02/06:00pm 25.9 SE 9 16 1012.3 - 0.0 - - - - - - -
02/05:30pm 26.3 SE 8 13 1011.9 - 0.0 - - - - - - -
02/05:00pm 26.7 SE 9 17 1011.6 - 0.0 - - - - - - -
02/04:30pm 26.8 ESE 11 19 1011.3 - 0.0 - - - - - - -
02/04:00pm 27.3 SE 10 18 1011.1 - 0.0 - - - - - - -
02/03:30pm 27.4 SE 11 17 1011.1 - 0.0 - - - - - - -
02/03:00pm 27.3 SE 12 22 1011.1 - 0.0 - - - - - - -
02/02:30pm 28.1 SE 12 22 1011.1 - 0.0 - - - - - - -
02/02:00pm 28.2 SE 11 19 1011.3 - 0.0 - - - - - - -
02/01:30pm 28.1 SE 14 24 1011.4 - 0.0 - - - - - - -
02/01:00pm 27.9 SE 12 19 1011.7 - 0.0 - - - - - - -
02/12:30pm 28.4 SE 11 20 1011.8 - 0.0 - - - - - - -
02/12:00pm 28.6 ESE 10 15 1012.0 - 0.0 - - - - - - -
02/11:30am 28.8 SE 9 14 1012.2 - 0.0 - - - - - - -
02/11:00am 28.2 ESE 9 14 1012.4 - 0.0 - - - - - - -
02/10:30am 28.1 SE 8 13 1012.4 - 0.0 - - - - - - -
02/10:00am 28.8 SE 6 10 1012.4 - 0.0 - - - - - - -
02/09:30am 28.2 SE 6 10 1012.6 - 0.0 - - - - - - -
02/09:00am 27.6 SSW 4 7 1012.4 - 0.0 - - - - - - -
02/08:30am 27.0 SW 3 6 1012.3 - 0.0 - - - - - - -
02/08:00am 25.9 SSW 4 7 1012.2 - 0.0 - - - - - - -
02/07:30am 25.2 S 3 5 1012.2 - 0.0 - - - - - - -
02/07:00am 24.2 S 5 6 1011.8 - 0.0 - - - - - - -
02/06:30am 23.4 CALM 0 3 1011.4 - 0.0 - - - - - - -
02/06:00am 22.7 CALM 0 0 1010.9 - 0.0 - - - - - - -
02/05:30am 22.8 CALM 0 0 1010.4 - 0.0 - - - - - - -
02/05:00am 22.8 CALM 0 0 1010.2 - 0.0 - - - - - - -
02/04:30am 22.7 CALM 0 0 1009.8 - 0.0 - - - - - - -
02/04:00am 22.8 CALM 0 1 1009.6 - 0.0 - - - - - - -
02/03:30am 22.8 CALM 0 0 1009.3 - 0.0 - - - - - - -
02/03:00am 22.8 CALM 0 0 1009.3 - 0.0 - - - - - - -
02/02:30am 23.1 CALM 0 0 1009.7 - 0.0 - - - - - - -
02/02:00am 23.2 SSW 2 5 1010.0 - 0.0 - - - - - - -
02/01:30am 23.1 CALM 0 3 1009.9 - 0.0 - - - - - - -
02/01:00am 23.1 CALM 0 0 1009.9 - 0.0 - - - - - - -
02/12:30am 23.2 CALM 0 3 1009.7 - 0.0 - - - - - - -
02/12:00am 23.0 CALM 0 1 1009.8 - 0.0 - - - - - - -
 
Date/Time
EST
Temp

°C
Wind Pressure Rain
since 9am
mm
Weather Cloud Vis
km
Sea
Height
m
Swell
Dir
 
Speed
knots
Gust
knots
hPa Trend Height
m
Period
s
Dir
01/11:30pm 23.7 W 1 3 1009.9 - 0.0 - - - - - - -
01/11:00pm 24.0 CALM 0 0 1010.0 - 0.0 - - - - - - -
01/10:30pm 24.4 CALM 0 3 1010.3 - 0.0 - - - - - - -
01/10:00pm 24.8 CALM 0 0 1010.4 - 0.0 - - - - - - -
01/09:30pm 25.1 N 1 4 1010.4 - 0.0 - - - - - - -
01/09:00pm 25.0 NNE 2 4 1009.9 - 0.0 - - - - - - -
01/08:30pm 25.0 CALM 0 0 1010.1 - 0.0 - - - - - - -
01/08:00pm 25.0 ENE 2 3 1009.7 - 0.0 - - - - - - -
01/07:30pm 25.2 NE 3 5 1009.4 - 0.0 - - - - - - -
01/07:00pm 25.4 NE 4 5 1009.0 - 0.0 - - - - - - -

Other Formats:

Comma delimited format used in spreadsheet applications
http://www.bom.gov.au/fwo/IDQ60701/IDQ60701.94570.axf

JavaScript Object Notation format (JSON) in row-major order
http://www.bom.gov.au/fwo/IDQ60701/IDQ60701.94570.json